Sincerity Ace — 3FFD7 — position and weather

sailwx.info

Track history (hours):
 
Tides and Currents Weather Stations Pressure Air Temp Water Temp Dewpoint Dewpoint Depression Visibility Wind Speed Wind Dir Waves Ship Positions

Sincerity Ace

Last reported at 2017-Aug-21 17:06 UTC. Time now 2017-Aug-22 05:31 UTC.
Position N 31°17' E 121°50'.

Length 200 m; draft 8.2 m.

Type: Cargo ship. MMSI: 351690000.

Date/timePositionNaut miles runAvg speedWind from/ knotsBaromVisibWave heightAir tempDewpointWater temp
2017-Aug-21 17:06N 31°17' E 121°50'513.4
2017-Aug-21 16:44N 31°19' E 121°44'2 9.9
2017-Aug-21 16:30N 31°19' E 121°42'1 0.1
2017-Aug-21 06:08N 31°19' E 121°41'0 0.0
2017-Aug-21 05:59N 31°19' E 121°41'0 0.0
2017-Aug-21 05:29N 31°19' E 121°41'0 0.0
2017-Aug-21 04:59N 31°19' E 121°41'0 0.6
2017-Aug-21 04:31N 31°20' E 121°41'3 6.5
2017-Aug-21 04:00N 31°19' E 121°45'5 9.8
2017-Aug-21 03:30N 31°17' E 121°50'5 9.7
2017-Aug-21 03:01N 31°16' E 121°55'611.2
2017-Aug-21 02:31N 31°14' E 122°02'610.9
2017-Aug-21 02:00N 31°13' E 122°08'510.3
2017-Aug-21 01:30N 31°10' E 122°13'612.6
2017-Aug-21 01:00N 31°06' E 122°19'612.5
2017-Aug-21 00:30N 31°07' E 122°26'4 8.2
2017-Aug-20 23:58N 31°07' E 122°31'52010.3
2017-Aug-18 21:36N 38°57' E 117°59'111.5
2017-Aug-18 21:30N 38°57' E 117°57'611.7
2017-Aug-18 21:00N 38°58' E 117°50'4 7.8
2017-Aug-18 20:30N 39°01' E 117°47'1 1.4
2017-Aug-18 20:00N 39°01' E 117°46'0 0.0
2017-Aug-18 19:30N 39°01' E 117°46'0 0.0
2017-Aug-18 19:00N 39°01' E 117°46'0 0.0
2017-Aug-18 18:30N 39°01' E 117°46'0 0.0
2017-Aug-18 18:00N 39°01' E 117°46'0 0.0
2017-Aug-18 17:24N 39°01' E 117°46'0 0.0
2017-Aug-18 16:54N 39°01' E 117°46'0 0.0
2017-Aug-18 16:30N 39°01' E 117°46'0 0.0
2017-Aug-18 16:00N 39°01' E 117°46'0 0.0
2017-Aug-18 15:30N 39°01' E 117°46'0 0.0
2017-Aug-18 14:54N 39°01' E 117°46'0 0.0
2017-Aug-18 14:30N 39°01' E 117°46'0 0.0
2017-Aug-18 13:24N 39°01' E 117°46'0 0.0
2017-Aug-18 12:54N 39°01' E 117°46'0 0.0
2017-Aug-18 12:30N 39°01' E 117°46'0 0.0
2017-Aug-18 11:48N 39°01' E 117°46'0 0.0
2017-Aug-18 11:30N 39°01' E 117°46'0 0.0
2017-Aug-18 10:54N 39°01' E 117°46'0 0.0
2017-Aug-18 10:30N 39°01' E 117°46'0 0.0
2017-Aug-18 10:00N 39°01' E 117°46'0 0.0
2017-Aug-18 09:30N 39°01' E 117°46'0 0.0
2017-Aug-18 09:00N 39°01' E 117°46'0 0.0
2017-Aug-18 08:18N 39°01' E 117°46'0 0.0
2017-Aug-18 07:42N 39°01' E 117°46'0 0.0
2017-Aug-18 07:18N 39°01' E 117°46'0 0.0
2017-Aug-18 07:00N 39°01' E 117°46'1 2.6
2017-Aug-18 06:30N 39°00' E 117°47'5 9.8
2017-Aug-18 06:00N 38°57' E 117°52'713.7
2017-Aug-18 05:30N 38°57' E 118°01'16913.6
2017-Aug-17 17:05N 38°20' E 121°33'2217.1
2017-Aug-17 15:47N 38°09' E 121°57'517.8
2017-Aug-17 15:29N 38°06' E 122°03'817.7
2017-Aug-17 15:00N 38°01' E 122°12'  
Track history (hours):
 
Tides and Currents Weather Stations Pressure Air Temp Water Temp Dewpoint Dewpoint Depression Visibility Wind Speed Wind Dir Waves Ship Positions

Sincerity Ace

Last reported at 2017-Aug-21 17:06 UTC. Time now 2017-Aug-22 05:31 UTC.
Position N 31°17' E 121°50'.

Length 200 m; draft 8.2 m.

Type: Cargo ship. MMSI: 351690000.

Date/timePositionNaut miles runAvg speedWind from/ knotsBaromVisibWave heightAir tempDewpointWater temp
2017-Aug-21 17:06N 31°17' E 121°50'513.4
2017-Aug-21 16:44N 31°19' E 121°44'2 9.9
2017-Aug-21 16:30N 31°19' E 121°42'1 0.1
2017-Aug-21 06:08N 31°19' E 121°41'0 0.0
2017-Aug-21 05:59N 31°19' E 121°41'0 0.0
2017-Aug-21 05:29N 31°19' E 121°41'0 0.0
2017-Aug-21 04:59N 31°19' E 121°41'0 0.6
2017-Aug-21 04:31N 31°20' E 121°41'3 6.5
2017-Aug-21 04:00N 31°19' E 121°45'5 9.8
2017-Aug-21 03:30N 31°17' E 121°50'5 9.7
2017-Aug-21 03:01N 31°16' E 121°55'611.2
2017-Aug-21 02:31N 31°14' E 122°02'610.9
2017-Aug-21 02:00N 31°13' E 122°08'510.3
2017-Aug-21 01:30N 31°10' E 122°13'612.6
2017-Aug-21 01:00N 31°06' E 122°19'612.5
2017-Aug-21 00:30N 31°07' E 122°26'4 8.2
2017-Aug-20 23:58N 31°07' E 122°31'52010.3
2017-Aug-18 21:36N 38°57' E 117°59'111.5
2017-Aug-18 21:30N 38°57' E 117°57'611.7
2017-Aug-18 21:00N 38°58' E 117°50'4 7.8
2017-Aug-18 20:30N 39°01' E 117°47'1 1.4
2017-Aug-18 20:00N 39°01' E 117°46'0 0.0
2017-Aug-18 19:30N 39°01' E 117°46'0 0.0
2017-Aug-18 19:00N 39°01' E 117°46'0 0.0
2017-Aug-18 18:30N 39°01' E 117°46'0 0.0
2017-Aug-18 18:00N 39°01' E 117°46'0 0.0
2017-Aug-18 17:24N 39°01' E 117°46'0 0.0
2017-Aug-18 16:54N 39°01' E 117°46'0 0.0
2017-Aug-18 16:30N 39°01' E 117°46'0 0.0
2017-Aug-18 16:00N 39°01' E 117°46'0 0.0
2017-Aug-18 15:30N 39°01' E 117°46'0 0.0
2017-Aug-18 14:54N 39°01' E 117°46'0 0.0
2017-Aug-18 14:30N 39°01' E 117°46'0 0.0
2017-Aug-18 13:24N 39°01' E 117°46'0 0.0
2017-Aug-18 12:54N 39°01' E 117°46'0 0.0
2017-Aug-18 12:30N 39°01' E 117°46'0 0.0
2017-Aug-18 11:48N 39°01' E 117°46'0 0.0
2017-Aug-18 11:30N 39°01' E 117°46'0 0.0
2017-Aug-18 10:54N 39°01' E 117°46'0 0.0
2017-Aug-18 10:30N 39°01' E 117°46'0 0.0
2017-Aug-18 10:00N 39°01' E 117°46'0 0.0
2017-Aug-18 09:30N 39°01' E 117°46'0 0.0
2017-Aug-18 09:00N 39°01' E 117°46'0 0.0
2017-Aug-18 08:18N 39°01' E 117°46'0 0.0
2017-Aug-18 07:42N 39°01' E 117°46'0 0.0
2017-Aug-18 07:18N 39°01' E 117°46'0 0.0
2017-Aug-18 07:00N 39°01' E 117°46'1 2.6
2017-Aug-18 06:30N 39°00' E 117°47'5 9.8
2017-Aug-18 06:00N 38°57' E 117°52'713.7
2017-Aug-18 05:30N 38°57' E 118°01'16913.6
2017-Aug-17 17:05N 38°20' E 121°33'2217.1
2017-Aug-17 15:47N 38°09' E 121°57'517.8
2017-Aug-17 15:29N 38°06' E 122°03'817.7
2017-Aug-17 15:00N 38°01' E 122°12'  

Dump ship's entire track history